Time;durP1;ratioP1;P1;durP2;ratioP2;P2;SDS_P1;SDS_P2;PMS_P1;PMS_P2;Temp;Humidity;BMP_temperature;BMP_pressure;BME280_temperature;BME280_humidity;BME280_pressure;Samples;Min_cycle;Max_cycle;Signal;HPM_P1;HPM_P2
2022/06/09 00:01:33;;;;;;;3.78;1.40;;;;;;;;;;4917839;28;20486;-86
2022/06/09 00:04:11;;;;;;;3.90;1.58;;;;;;;;;;4946641;28;20075;-85
2022/06/09 00:06:49;;;;;;;3.85;1.48;;;;;;;;;;4940232;28;20067;-85
2022/06/09 00:09:16;;;;;;;4.15;1.40;;;;;;;;;;4914158;28;20043;-85
2022/06/09 00:11:45;;;;;;;2.42;1.42;;;;;;;;;;4912244;28;20578;-85
2022/06/09 00:14:10;;;;;;;2.45;1.25;;;;;;;;;;4929037;28;20050;-85
2022/06/09 00:16:36;;;;;;;2.63;1.25;;;;;;;;;;4933998;28;20031;-86
2022/06/09 00:19:05;;;;;;;3.47;1.42;;;;;;;;;;4973825;28;20057;-87
2022/06/09 00:21:30;;;;;;;2.70;1.20;;;;;;;;;;5019687;28;20045;-86
2022/06/09 00:23:58;;;;;;;3.33;1.40;;;;;;;;;;5006981;28;20489;-86
2022/06/09 00:26:23;;;;;;;2.58;1.30;;;;;;;;;;5008321;28;20038;-85
2022/06/09 00:28:49;;;;;;;2.35;1.35;;;;;;;;;;4988319;28;20089;-86
2022/06/09 00:31:14;;;;;;;2.47;1.45;;;;;;;;;;5005093;28;20959;-85
2022/06/09 00:33:39;;;;;;;2.95;1.50;;;;;;;;;;5005874;28;20033;-84
2022/06/09 00:36:05;;;;;;;4.32;1.48;;;;;;;;;;5007787;28;20038;-86
2022/06/09 00:38:30;;;;;;;2.60;1.30;;;;;;;;;;5005511;28;20049;-86
2022/06/09 00:40:59;;;;;;;2.88;1.52;;;;;;;;;;4998969;28;20038;-86
2022/06/09 00:43:28;;;;;;;3.53;1.60;;;;;;;;;;5014322;28;20743;-85
2022/06/09 00:46:16;;;;;;;2.55;1.30;;;;;;;;;;5005363;28;20057;-86
2022/06/09 00:48:49;;;;;;;4.00;1.20;;;;;;;;;;4997211;28;20621;-85
2022/06/09 00:51:30;;;;;;;2.45;1.30;;;;;;;;;;5016683;28;20040;-85
2022/06/09 00:54:11;;;;;;;2.65;1.38;;;;;;;;;;5016006;28;20515;-85
2022/06/09 00:56:40;;;;;;;3.13;1.50;;;;;;;;;;5007267;28;20057;-86
2022/06/09 00:59:06;;;;;;;3.10;1.40;;;;;;;;;;5016755;28;20036;-86
2022/06/09 01:01:32;;;;;;;4.40;1.30;;;;;;;;;;5017140;28;20037;-86
2022/06/09 01:04:02;;;;;;;2.60;1.42;;;;;;;;;;5016529;28;20037;-86
2022/06/09 01:06:32;;;;;;;2.42;1.15;;;;;;;;;;5005809;28;20500;-86
2022/06/09 01:08:58;;;;;;;2.20;1.13;;;;;;;;;;5000470;28;20052;-86
2022/06/09 01:11:24;;;;;;;3.50;1.20;;;;;;;;;;5010795;28;20837;-86
2022/06/09 01:13:49;;;;;;;3.60;1.33;;;;;;;;;;5015216;28;20041;-86
2022/06/09 01:16:59;;;;;;;3.03;1.40;;;;;;;;;;5017440;28;20066;-87
2022/06/09 01:19:30;;;;;;;3.13;1.30;;;;;;;;;;4946521;28;20039;-86
2022/06/09 01:22:11;;;;;;;5.45;1.45;;;;;;;;;;5007841;28;20499;-85
2022/06/09 01:24:51;;;;;;;5.00;1.25;;;;;;;;;;5014959;28;20442;-87
2022/06/09 01:27:35;;;;;;;5.07;1.27;;;;;;;;;;5014190;28;20400;-86
2022/06/09 01:30:18;;;;;;;2.85;1.30;;;;;;;;;;5014457;28;20053;-85
2022/06/09 01:33:01;;;;;;;2.90;1.35;;;;;;;;;;5001752;28;20042;-85
2022/06/09 01:35:54;;;;;;;2.97;1.30;;;;;;;;;;4995797;28;20038;-85
2022/06/09 01:38:19;;;;;;;2.80;1.27;;;;;;;;;;5014198;28;20833;-87
2022/06/09 01:40:45;;;;;;;2.20;1.10;;;;;;;;;;5011162;28;20053;-86
2022/06/09 01:43:11;;;;;;;2.25;1.20;;;;;;;;;;5017042;28;20041;-85
2022/06/09 01:45:54;;;;;;;2.78;1.40;;;;;;;;;;5021920;28;20104;-85
2022/06/09 01:48:20;;;;;;;2.40;1.23;;;;;;;;;;5000368;28;20049;-84
2022/06/09 01:50:51;;;;;;;7.53;1.35;;;;;;;;;;5021748;28;20045;-84
2022/06/09 01:53:20;;;;;;;2.55;1.30;;;;;;;;;;5015254;28;20060;-88
2022/06/09 01:55:50;;;;;;;2.42;1.27;;;;;;;;;;5016438;28;20038;-87
2022/06/09 01:58:20;;;;;;;2.75;1.40;;;;;;;;;;5016744;28;20513;-88
2022/06/09 02:00:45;;;;;;;2.13;1.20;;;;;;;;;;5001370;28;20529;-89
2022/06/09 02:03:26;;;;;;;1.85;1.00;;;;;;;;;;4998890;28;20037;-87
2022/06/09 02:05:53;;;;;;;2.38;1.05;;;;;;;;;;5017602;28;20095;-87
2022/06/09 02:08:20;;;;;;;;;;;;;;;;;;4998785;28;20400;-85
2022/06/09 02:10:48;;;;;;;2.20;1.20;;;;;;;;;;5020652;28;19928;-86
2022/06/09 02:13:23;;;;;;;3.03;1.10;;;;;;;;;;5021588;28;20593;-86
2022/06/09 02:15:52;;;;;;;2.33;1.38;;;;;;;;;;5005796;28;20044;-86
2022/06/09 02:18:23;;;;;;;2.83;1.10;;;;;;;;;;5009342;28;20034;-86
2022/06/09 02:20:59;;;;;;;3.33;1.48;;;;;;;;;;4998634;28;20528;-86
2022/06/09 02:23:24;;;;;;;2.88;1.23;;;;;;;;;;5015165;28;20038;-86
2022/06/09 02:25:50;;;;;;;2.15;1.05;;;;;;;;;;5004140;28;20599;-87
2022/06/09 02:28:15;;;;;;;2.80;1.10;;;;;;;;;;5015350;28;20048;-85
2022/06/09 02:30:41;;;;;;;2.47;1.20;;;;;;;;;;5004979;28;20451;-86
2022/06/09 02:33:07;;;;;;;2.25;1.13;;;;;;;;;;5006121;28;20045;-86
2022/06/09 02:35:32;;;;;;;2.67;1.30;;;;;;;;;;5019830;28;20087;-87
2022/06/09 02:38:00;;;;;;;2.67;1.10;;;;;;;;;;4998472;28;20061;-86
2022/06/09 02:40:27;;;;;;;2.15;1.20;;;;;;;;;;5009764;28;20041;-87
2022/06/09 02:42:52;;;;;;;2.97;1.30;;;;;;;;;;5000212;28;20061;-86
2022/06/09 02:45:17;;;;;;;2.50;1.30;;;;;;;;;;5001688;28;20472;-86
2022/06/09 02:47:44;;;;;;;3.05;1.30;;;;;;;;;;5023202;28;20397;-86
2022/06/09 02:50:09;;;;;;;2.60;1.15;;;;;;;;;;5002817;28;20890;-85
2022/06/09 02:52:35;;;;;;;2.88;1.17;;;;;;;;;;5011712;28;20037;-85
2022/06/09 02:55:00;;;;;;;2.47;1.20;;;;;;;;;;5010058;28;20034;-85
2022/06/09 02:57:26;;;;;;;2.63;1.30;;;;;;;;;;5013145;28;20117;-86
2022/06/09 02:59:52;;;;;;;2.95;1.33;;;;;;;;;;5013006;28;20040;-85
2022/06/09 03:02:20;;;;;;;2.00;1.00;;;;;;;;;;5025057;28;20042;-85
2022/06/09 03:04:46;;;;;;;3.13;1.13;;;;;;;;;;5009096;28;20048;-85
2022/06/09 03:07:12;;;;;;;2.70;1.10;;;;;;;;;;5003512;28;20392;-85
2022/06/09 03:09:39;;;;;;;2.83;1.15;;;;;;;;;;5019943;28;20033;-86
2022/06/09 03:12:04;;;;;;;1.75;1.00;;;;;;;;;;5008171;28;20045;-85
2022/06/09 03:14:30;;;;;;;4.05;1.58;;;;;;;;;;5008053;28;20042;-86
2022/06/09 03:16:55;;;;;;;2.97;1.23;;;;;;;;;;5003901;28;20041;-85
2022/06/09 03:19:21;;;;;;;3.15;1.10;;;;;;;;;;5011155;28;20044;-86
2022/06/09 03:21:47;;;;;;;2.28;0.95;;;;;;;;;;5002826;28;20033;-85
2022/06/09 03:24:12;;;;;;;3.22;1.23;;;;;;;;;;5019470;28;20041;-85
2022/06/09 03:26:38;;;;;;;3.30;1.10;;;;;;;;;;5032652;28;20056;-85
2022/06/09 03:29:03;;;;;;;3.40;1.30;;;;;;;;;;5001978;28;20037;-86
2022/06/09 03:31:29;;;;;;;3.10;1.08;;;;;;;;;;5008778;28;22370;-86
2022/06/09 03:33:54;;;;;;;2.55;1.17;;;;;;;;;;5018323;28;20071;-85
2022/06/09 03:36:19;;;;;;;3.25;1.00;;;;;;;;;;5000640;28;20033;-86
2022/06/09 03:38:45;;;;;;;2.28;1.30;;;;;;;;;;5001627;28;20043;-86
2022/06/09 03:41:10;;;;;;;2.30;1.00;;;;;;;;;;5008930;28;20476;-85
2022/06/09 03:43:36;;;;;;;2.00;0.90;;;;;;;;;;5008419;28;20041;-87
2022/06/09 03:46:02;;;;;;;2.05;1.00;;;;;;;;;;5018775;28;20050;-82
2022/06/09 03:48:28;;;;;;;1.98;1.05;;;;;;;;;;5018672;28;20053;-82
2022/06/09 03:50:53;;;;;;;2.30;1.08;;;;;;;;;;5024465;28;20489;-82
2022/06/09 03:53:19;;;;;;;2.40;1.35;;;;;;;;;;5007723;28;20853;-82
2022/06/09 03:55:44;;;;;;;2.65;1.02;;;;;;;;;;5022269;28;20384;-82
2022/06/09 03:58:10;;;;;;;2.50;1.20;;;;;;;;;;5003994;28;20068;-83
2022/06/09 04:00:35;;;;;;;2.80;1.00;;;;;;;;;;5005039;28;20103;-82
2022/06/09 04:03:01;;;;;;;2.10;0.93;;;;;;;;;;5018839;28;20069;-83
2022/06/09 04:05:27;;;;;;;3.58;1.10;;;;;;;;;;5019510;28;20034;-82
2022/06/09 04:07:52;;;;;;;2.13;0.93;;;;;;;;;;5022955;28;20118;-82
2022/06/09 04:10:21;;;;;;;2.30;0.90;;;;;;;;;;5006357;28;20454;-83
2022/06/09 04:12:47;;;;;;;2.67;0.95;;;;;;;;;;5000954;28;20496;-83
2022/06/09 04:15:15;;;;;;;4.22;1.10;;;;;;;;;;5018343;28;20037;-82
2022/06/09 04:17:41;;;;;;;2.83;1.00;;;;;;;;;;5021132;28;20440;-81
2022/06/09 04:20:07;;;;;;;3.03;1.00;;;;;;;;;;5002718;28;20038;-81
2022/06/09 04:22:33;;;;;;;4.57;1.10;;;;;;;;;;5017927;28;20045;-81
2022/06/09 04:24:59;;;;;;;3.65;0.98;;;;;;;;;;5018464;28;20159;-81
2022/06/09 04:27:24;;;;;;;1.80;0.80;;;;;;;;;;5007236;28;20482;-82
2022/06/09 04:29:50;;;;;;;3.47;0.82;;;;;;;;;;5018609;28;20045;-82
2022/06/09 04:32:16;;;;;;;1.67;0.75;;;;;;;;;;5000882;28;20033;-84
2022/06/09 04:34:42;;;;;;;2.75;1.00;;;;;;;;;;5007129;28;20037;-85
2022/06/09 04:37:08;;;;;;;3.83;0.80;;;;;;;;;;5022580;28;20438;-85
2022/06/09 04:39:33;;;;;;;2.30;0.90;;;;;;;;;;5016146;28;20061;-85
2022/06/09 04:41:58;;;;;;;3.55;0.77;;;;;;;;;;5000994;28;20033;-85
2022/06/09 04:44:24;;;;;;;2.58;0.90;;;;;;;;;;5019645;28;20112;-84
2022/06/09 04:46:49;;;;;;;1.52;0.70;;;;;;;;;;5003156;28;20033;-85
2022/06/09 04:49:14;;;;;;;1.63;0.73;;;;;;;;;;5023184;28;20553;-85
2022/06/09 04:51:40;;;;;;;4.20;1.15;;;;;;;;;;5007096;28;20034;-84
2022/06/09 04:54:05;;;;;;;2.30;0.70;;;;;;;;;;5013566;28;20516;-85
2022/06/09 04:56:31;;;;;;;3.83;0.90;;;;;;;;;;5022446;28;20042;-85
2022/06/09 04:58:56;;;;;;;3.00;0.82;;;;;;;;;;5012644;28;20042;-85
2022/06/09 05:01:31;;;;;;;2.20;0.55;;;;;;;;;;4996274;28;20084;-85
2022/06/09 05:03:58;;;;;;;3.05;1.10;;;;;;;;;;5001917;28;20572;-86
2022/06/09 05:06:25;;;;;;;1.77;0.50;;;;;;;;;;5014498;28;20030;-85
2022/06/09 05:08:52;;;;;;;1.60;0.50;;;;;;;;;;5008333;28;20029;-81
2022/06/09 05:11:18;;;;;;;1.00;0.60;;;;;;;;;;5021182;28;20025;-85
2022/06/09 05:13:43;;;;;;;2.13;0.70;;;;;;;;;;5019145;28;20040;-84
2022/06/09 05:16:09;;;;;;;2.65;0.63;;;;;;;;;;5015015;28;20598;-84
2022/06/09 05:18:35;;;;;;;1.33;0.50;;;;;;;;;;5017315;28;20488;-85
2022/06/09 05:21:01;;;;;;;1.50;0.50;;;;;;;;;;5000204;28;20064;-86
2022/06/09 05:23:27;;;;;;;1.92;0.73;;;;;;;;;;5009097;28;20033;-84
2022/06/09 05:25:54;;;;;;;2.08;0.65;;;;;;;;;;5015477;28;20037;-86
2022/06/09 05:28:24;;;;;;;0.98;0.47;;;;;;;;;;5022698;28;20038;-84
2022/06/09 05:30:50;;;;;;;0.85;0.50;;;;;;;;;;4996918;28;20140;-84
2022/06/09 05:33:15;;;;;;;1.67;0.50;;;;;;;;;;5013821;28;20094;-84
2022/06/09 05:35:41;;;;;;;1.77;0.68;;;;;;;;;;5018560;28;20481;-83
2022/06/09 05:46:19;;;;;;;1.80;0.57;;;;;;;;;;5016842;28;20041;-82
2022/06/09 05:48:45;;;;;;;2.60;0.73;;;;;;;;;;5014790;28;20615;-84
2022/06/09 05:51:12;;;;;;;2.22;1.00;;;;;;;;;;5015015;28;20058;-83
2022/06/09 05:53:37;;;;;;;1.95;0.80;;;;;;;;;;5003213;28;20441;-83
2022/06/09 05:56:04;;;;;;;1.80;0.60;;;;;;;;;;5016417;28;20048;-83
2022/06/09 05:58:29;;;;;;;2.78;0.70;;;;;;;;;;5004627;28;20040;-84
2022/06/09 06:00:55;;;;;;;1.92;0.52;;;;;;;;;;5014579;28;20030;-82
2022/06/09 06:03:20;;;;;;;2.10;0.65;;;;;;;;;;5007830;28;20033;-83
2022/06/09 06:08:47;;;;;;;1.77;0.68;;;;;;;;;;5014386;28;20040;-82
2022/06/09 06:11:14;;;;;;;3.50;0.75;;;;;;;;;;5006856;28;20064;-82
2022/06/09 06:13:41;;;;;;;2.75;0.70;;;;;;;;;;5015186;28;20120;-83
2022/06/09 06:16:06;;;;;;;1.35;0.50;;;;;;;;;;5000586;28;20167;-83
2022/06/09 06:18:31;;;;;;;1.45;0.77;;;;;;;;;;5015217;28;20127;-83
2022/06/09 06:20:57;;;;;;;2.55;0.77;;;;;;;;;;5012337;28;20033;-84
2022/06/09 06:23:23;;;;;;;2.20;0.70;;;;;;;;;;5020418;28;20034;-84
2022/06/09 06:25:48;;;;;;;1.48;0.60;;;;;;;;;;5012792;28;20034;-83
2022/06/09 06:28:14;;;;;;;2.08;0.82;;;;;;;;;;4998847;28;20183;-82
2022/06/09 06:30:40;;;;;;;2.22;0.77;;;;;;;;;;5013799;28;20041;-82
2022/06/09 06:33:05;;;;;;;2.53;0.75;;;;;;;;;;5014924;28;20042;-82
2022/06/09 06:35:31;;;;;;;4.72;1.13;;;;;;;;;;5020613;28;20034;-81
2022/06/09 06:37:56;;;;;;;2.05;0.88;;;;;;;;;;5016006;28;20038;-83
2022/06/09 06:40:21;;;;;;;2.33;0.80;;;;;;;;;;5005184;28;20037;-85
2022/06/09 06:42:47;;;;;;;3.85;0.82;;;;;;;;;;5014985;28;20453;-84
2022/06/09 06:45:14;;;;;;;5.93;0.90;;;;;;;;;;5006401;28;20046;-83
2022/06/09 06:47:39;;;;;;;3.28;0.77;;;;;;;;;;5017031;28;20060;-82
2022/06/09 06:50:06;;;;;;;3.75;0.90;;;;;;;;;;5004760;28;20111;-83
2022/06/09 06:52:32;;;;;;;2.30;0.68;;;;;;;;;;5009406;28;20041;-84
2022/06/09 06:54:57;;;;;;;1.98;0.70;;;;;;;;;;5020182;28;20759;-83
2022/06/09 06:57:22;;;;;;;2.08;0.75;;;;;;;;;;5022006;28;20048;-84
2022/06/09 06:59:48;;;;;;;2.38;0.60;;;;;;;;;;5000565;28;20048;-84
2022/06/09 07:02:13;;;;;;;2.10;0.60;;;;;;;;;;4995656;28;20037;-84
2022/06/09 07:04:39;;;;;;;2.33;0.70;;;;;;;;;;4998195;28;20037;-84
2022/06/09 07:07:04;;;;;;;2.30;0.82;;;;;;;;;;5004168;28;20120;-84
2022/06/09 07:09:30;;;;;;;3.38;0.90;;;;;;;;;;4998462;28;20037;-84
2022/06/09 07:11:55;;;;;;;3.33;0.90;;;;;;;;;;5000627;28;20065;-84
2022/06/09 07:14:21;;;;;;;1.88;0.60;;;;;;;;;;5016820;28;20068;-84
2022/06/09 07:16:46;;;;;;;2.20;0.60;;;;;;;;;;5016325;28;20042;-84
2022/06/09 07:19:13;;;;;;;2.58;0.90;;;;;;;;;;5014277;28;20120;-82
2022/06/09 07:21:39;;;;;;;1.60;0.65;;;;;;;;;;5007554;28;20042;-81
2022/06/09 07:24:05;;;;;;;2.60;0.80;;;;;;;;;;4997848;28;20044;-81
2022/06/09 07:26:30;;;;;;;2.13;0.60;;;;;;;;;;5010937;28;20049;-81
2022/06/09 07:28:56;;;;;;;2.38;0.75;;;;;;;;;;5006023;28;20435;-81
2022/06/09 07:31:21;;;;;;;1.90;0.65;;;;;;;;;;5001602;28;20069;-81
2022/06/09 07:33:46;;;;;;;1.85;0.70;;;;;;;;;;5022049;28;20045;-82
2022/06/09 07:36:16;;;;;;;2.92;0.75;;;;;;;;;;5007961;28;20034;-82
2022/06/09 07:38:42;;;;;;;2.17;0.60;;;;;;;;;;5004466;28;20041;-82
2022/06/09 07:41:08;;;;;;;2.25;0.80;;;;;;;;;;5017678;28;20128;-81
2022/06/09 07:43:33;;;;;;;1.80;0.75;;;;;;;;;;5018175;28;20548;-81
2022/06/09 07:45:59;;;;;;;1.98;0.70;;;;;;;;;;5023534;28;20493;-81
2022/06/09 07:48:24;;;;;;;3.25;0.90;;;;;;;;;;5020081;28;20386;-80
2022/06/09 07:50:50;;;;;;;1.35;0.60;;;;;;;;;;5027232;28;20048;-82
2022/06/09 07:53:17;;;;;;;2.22;0.70;;;;;;;;;;5014233;28;20034;-80
2022/06/09 07:55:43;;;;;;;2.47;1.02;;;;;;;;;;5004182;28;20030;-79
2022/06/09 07:58:08;;;;;;;2.95;0.88;;;;;;;;;;5021568;28;20045;-79
2022/06/09 08:00:34;;;;;;;3.53;1.10;;;;;;;;;;5025607;28;20034;-80
2022/06/09 08:03:02;;;;;;;2.58;0.75;;;;;;;;;;5003701;28;20045;-80
2022/06/09 08:05:27;;;;;;;1.27;0.63;;;;;;;;;;5006141;28;20033;-80
2022/06/09 08:07:53;;;;;;;3.83;1.30;;;;;;;;;;5020994;28;20045;-80
2022/06/09 08:10:22;;;;;;;1.65;0.80;;;;;;;;;;5012090;28;20041;-81
2022/06/09 08:12:50;;;;;;;2.20;0.88;;;;;;;;;;5010250;28;20621;-80
2022/06/09 08:15:16;;;;;;;2.88;0.98;;;;;;;;;;4998512;28;20045;-79
2022/06/09 08:17:41;;;;;;;3.13;0.90;;;;;;;;;;5010532;28;20029;-81
2022/06/09 08:20:08;;;;;;;2.00;0.95;;;;;;;;;;5025258;28;20025;-80
2022/06/09 08:22:34;;;;;;;3.75;1.00;;;;;;;;;;5011734;28;20037;-81
2022/06/09 08:25:08;;;;;;;2.67;1.10;;;;;;;;;;5025066;28;20034;-81
2022/06/09 08:27:34;;;;;;;2.75;0.90;;;;;;;;;;5023667;28;20168;-80
2022/06/09 08:30:00;;;;;;;1.83;0.85;;;;;;;;;;5023572;28;20048;-80
2022/06/09 08:32:25;;;;;;;2.65;1.13;;;;;;;;;;5016895;28;20034;-80
2022/06/09 08:34:50;;;;;;;3.55;0.90;;;;;;;;;;5020950;28;20068;-81
2022/06/09 08:37:16;;;;;;;2.63;1.05;;;;;;;;;;5022591;28;20034;-82
2022/06/09 08:39:41;;;;;;;2.90;0.82;;;;;;;;;;5014659;28;20035;-81
2022/06/09 08:42:25;;;;;;;3.00;0.98;;;;;;;;;;5005913;28;20155;-81
2022/06/09 08:45:09;;;;;;;3.53;1.02;;;;;;;;;;5021288;28;20084;-82
2022/06/09 08:47:41;;;;;;;3.58;1.08;;;;;;;;;;5001479;28;20434;-81
2022/06/09 08:50:26;;;;;;;2.17;0.80;;;;;;;;;;5023334;28;20068;-82
2022/06/09 08:53:04;;;;;;;2.30;1.00;;;;;;;;;;5016641;28;20511;-82
2022/06/09 08:55:37;;;;;;;1.98;0.93;;;;;;;;;;5021395;28;20436;-81
2022/06/09 08:58:08;;;;;;;2.85;1.15;;;;;;;;;;5022634;28;20689;-82
2022/06/09 09:00:38;;;;;;;2.40;1.05;;;;;;;;;;5035059;28;20156;-82
2022/06/09 09:03:11;;;;;;;2.03;1.10;;;;;;;;;;5007152;28;20033;-82
2022/06/09 09:05:45;;;;;;;1.90;1.00;;;;;;;;;;4997884;28;20067;-81
2022/06/09 09:08:10;;;;;;;3.50;1.20;;;;;;;;;;5009912;28;20045;-82
2022/06/09 09:10:36;;;;;;;3.03;1.10;;;;;;;;;;5024535;28;20030;-81
2022/06/09 09:13:19;;;;;;;4.10;1.27;;;;;;;;;;5031100;28;20072;-82
2022/06/09 09:15:48;;;;;;;3.85;1.00;;;;;;;;;;5021742;28;20400;-82
2022/06/09 09:18:24;;;;;;;1.85;0.85;;;;;;;;;;5006661;28;20095;-82
2022/06/09 09:21:20;;;;;;;2.95;1.25;;;;;;;;;;5026214;28;20044;-81
2022/06/09 09:24:17;;;;;;;2.55;1.20;;;;;;;;;;5021029;28;20036;-82
2022/06/09 09:26:48;;;;;;;1.75;1.00;;;;;;;;;;5002835;28;20457;-82
2022/06/09 09:30:07;;;;;;;1.75;0.90;;;;;;;;;;5022840;28;20061;-81
2022/06/09 09:32:45;;;;;;;2.80;1.10;;;;;;;;;;4969243;28;20057;-82
2022/06/09 09:35:21;;;;;;;;;;;;;;;;;;4957642;28;20515;-82
2022/06/09 09:37:53;;;;;;;1.67;0.90;;;;;;;;;;4957762;28;19918;-82
2022/06/09 09:40:32;;;;;;;2.00;1.13;;;;;;;;;;4964605;28;20121;-82
2022/06/09 09:43:01;;;;;;;2.15;1.10;;;;;;;;;;4954822;28;20038;-81
2022/06/09 09:45:47;;;;;;;2.72;1.10;;;;;;;;;;4940920;28;20041;-81
2022/06/09 09:48:19;;;;;;;3.30;0.90;;;;;;;;;;4969840;28;20062;-81
2022/06/09 09:51:10;;;;;;;3.40;1.40;;;;;;;;;;4987424;28;20061;-82
2022/06/09 09:53:44;;;;;;;3.38;1.20;;;;;;;;;;4966085;28;20042;-81
2022/06/09 09:56:15;;;;;;;2.97;1.25;;;;;;;;;;4985373;28;20034;-81
2022/06/09 09:58:46;;;;;;;3.50;1.40;;;;;;;;;;4987925;28;20392;-82
2022/06/09 10:01:17;;;;;;;3.30;1.10;;;;;;;;;;4987342;28;20031;-83
2022/06/09 10:09:31;;;;;;;3.65;1.30;;;;;;;;;;5015024;28;20081;-81
2022/06/09 10:12:02;;;;;;;2.55;1.10;;;;;;;;;;5002071;28;20412;-82
2022/06/09 10:14:47;;;;;;;2.30;1.00;;;;;;;;;;5020851;28;20132;-82
2022/06/09 10:17:43;;;;;;;3.10;1.27;;;;;;;;;;5023700;28;20080;-82
2022/06/09 10:20:33;;;;;;;4.85;1.10;;;;;;;;;;5013111;28;20041;-82
2022/06/09 10:23:13;;;;;;;2.75;1.10;;;;;;;;;;5024639;28;20042;-82
2022/06/09 10:25:41;;;;;;;4.50;1.20;;;;;;;;;;5023899;28;20353;-81
2022/06/09 10:28:19;;;;;;;5.15;1.10;;;;;;;;;;5016886;28;20385;-83
2022/06/09 10:30:49;;;;;;;2.83;1.20;;;;;;;;;;5006772;28;20504;-82
2022/06/09 10:33:52;;;;;;;4.55;1.30;;;;;;;;;;5003037;28;20091;-81
2022/06/09 10:36:23;;;;;;;2.42;1.08;;;;;;;;;;4991115;28;20457;-83
2022/06/09 10:38:55;;;;;;;2.33;1.15;;;;;;;;;;5002469;28;20505;-82
2022/06/09 10:41:35;;;;;;;2.03;0.95;;;;;;;;;;5024311;28;20512;-83
2022/06/09 10:44:11;;;;;;;2.50;1.30;;;;;;;;;;5007592;28;20041;-82
2022/06/09 10:55:14;;;;;;;3.58;1.25;;;;;;;;;;5010392;28;20362;-82
2022/06/09 10:55:32;;;;;;;3.10;1.60;;;;;;;;;;5025261;28;20113;-82
2022/06/09 10:58:15;;;;;;;2.95;1.35;;;;;;;;;;5019887;28;20034;-82
2022/06/09 11:00:51;;;;;;;3.63;1.30;;;;;;;;;;4999759;28;20038;-82
2022/06/09 11:03:18;;;;;;;2.83;1.30;;;;;;;;;;5018269;28;20038;-82
2022/06/09 11:05:54;;;;;;;3.53;1.40;;;;;;;;;;5023716;28;20124;-82
2022/06/09 11:08:42;;;;;;;3.13;1.25;;;;;;;;;;4997241;28;20041;-82
2022/06/09 11:11:26;;;;;;;2.58;1.40;;;;;;;;;;5022896;28;20033;-81
2022/06/09 11:14:05;;;;;;;5.25;1.50;;;;;;;;;;5021194;28;20899;-82
2022/06/09 11:16:53;;;;;;;3.17;1.50;;;;;;;;;;5012365;28;20045;-82
2022/06/09 11:19:40;;;;;;;3.25;1.35;;;;;;;;;;5018652;28;20041;-81
2022/06/09 11:22:12;;;;;;;2.63;1.40;;;;;;;;;;5019495;28;20492;-82
2022/06/09 11:24:44;;;;;;;2.88;1.42;;;;;;;;;;5019752;28;20037;-82
2022/06/09 11:27:14;;;;;;;2.38;1.10;;;;;;;;;;5026534;28;20083;-82
2022/06/09 11:29:49;;;;;;;2.83;1.45;;;;;;;;;;5020842;28;20140;-82
2022/06/09 11:32:22;;;;;;;3.40;1.35;;;;;;;;;;5018929;28;20582;-82
2022/06/09 11:35:09;;;;;;;3.97;1.65;;;;;;;;;;5008210;28;20038;-82
2022/06/09 11:37:59;;;;;;;3.83;1.23;;;;;;;;;;5022542;28;20676;-82
2022/06/09 11:40:53;;;;;;;3.70;1.50;;;;;;;;;;5033517;28;20076;-82
2022/06/09 11:43:35;;;;;;;4.05;1.60;;;;;;;;;;5020590;28;20088;-83
2022/06/09 11:46:03;;;;;;;3.40;1.60;;;;;;;;;;5025536;28;20041;-83
2022/06/09 11:48:30;;;;;;;3.67;1.60;;;;;;;;;;5023530;28;20053;-82
2022/06/09 11:50:56;;;;;;;3.95;1.58;;;;;;;;;;5036662;28;20041;-82
2022/06/09 11:53:25;;;;;;;3.28;1.42;;;;;;;;;;5010655;28;20041;-83
2022/06/09 11:56:08;;;;;;;2.65;1.35;;;;;;;;;;5023928;28;20048;-83
2022/06/09 11:58:34;;;;;;;5.43;1.70;;;;;;;;;;5026082;28;20041;-83
2022/06/09 12:01:20;;;;;;;3.40;1.65;;;;;;;;;;5040237;28;20041;-83
2022/06/09 12:04:24;;;;;;;3.92;1.55;;;;;;;;;;5023851;28;20041;-83
2022/06/09 12:07:18;;;;;;;3.28;1.50;;;;;;;;;;4978731;28;20049;-84
2022/06/09 12:10:03;;;;;;;2.63;1.45;;;;;;;;;;5023128;28;20030;-82
2022/06/09 12:12:38;;;;;;;5.43;1.92;;;;;;;;;;5019135;28;20040;-82
2022/06/09 12:15:16;;;;;;;5.03;1.67;;;;;;;;;;5010582;28;20061;-82
2022/06/09 12:18:05;;;;;;;3.15;1.80;;;;;;;;;;5020089;28;20038;-82
2022/06/09 12:20:42;;;;;;;3.75;1.38;;;;;;;;;;5024544;28;20042;-82
2022/06/09 12:23:08;;;;;;;3.75;1.70;;;;;;;;;;5019172;28;20030;-82
2022/06/09 12:25:36;;;;;;;4.95;1.80;;;;;;;;;;5024319;28;20382;-82
2022/06/09 12:28:40;;;;;;;3.10;1.83;;;;;;;;;;5015132;28;20104;-82
2022/06/09 12:31:17;;;;;;;4.10;1.95;;;;;;;;;;5014214;28;20604;-83
2022/06/09 12:34:04;;;;;;;4.40;1.92;;;;;;;;;;5004011;28;20107;-83
2022/06/09 12:36:48;;;;;;;5.82;1.48;;;;;;;;;;5021479;28;20084;-83
2022/06/09 12:39:30;;;;;;;4.43;1.92;;;;;;;;;;5017772;28;20037;-83
2022/06/09 12:42:32;;;;;;;5.32;2.05;;;;;;;;;;5028045;28;20037;-83
2022/06/09 12:45:09;;;;;;;4.10;2.45;;;;;;;;;;4999309;28;20125;-82
2022/06/09 12:47:35;;;;;;;4.28;2.22;;;;;;;;;;5015295;28;20033;-82
2022/06/09 12:50:21;;;;;;;4.10;2.20;;;;;;;;;;5013276;28;20046;-81
2022/06/09 12:52:47;;;;;;;3.53;2.08;;;;;;;;;;5000021;28;20066;-82
2022/06/09 12:55:19;;;;;;;4.22;2.33;;;;;;;;;;5010087;28;20045;-82
2022/06/09 12:57:51;;;;;;;4.75;2.45;;;;;;;;;;5002725;28;20047;-82
2022/06/09 13:00:21;;;;;;;4.43;2.55;;;;;;;;;;4982323;28;20417;-83
2022/06/09 13:02:48;;;;;;;5.47;2.22;;;;;;;;;;5010192;28;20417;-83
2022/06/09 13:05:29;;;;;;;5.72;3.00;;;;;;;;;;4999088;28;20038;-81
2022/06/09 13:08:16;;;;;;;4.65;2.75;;;;;;;;;;4988043;28;20045;-80
2022/06/09 13:10:44;;;;;;;4.15;2.45;;;;;;;;;;4998177;28;20117;-81
2022/06/09 13:13:25;;;;;;;4.97;2.60;;;;;;;;;;4984089;28;20048;-81
2022/06/09 13:16:03;;;;;;;6.20;2.72;;;;;;;;;;4999125;28;20034;-81
2022/06/09 13:18:44;;;;;;;3.60;2.33;;;;;;;;;;4982839;28;20092;-81
2022/06/09 13:21:18;;;;;;;4.00;2.42;;;;;;;;;;5016876;28;20124;-81
2022/06/09 13:23:52;;;;;;;4.47;2.90;;;;;;;;;;5012119;28;20034;-80
2022/06/09 13:26:24;;;;;;;5.13;2.55;;;;;;;;;;5014896;28;20037;-81
2022/06/09 13:28:52;;;;;;;5.28;2.38;;;;;;;;;;4980644;28;20069;-81
2022/06/09 13:31:27;;;;;;;5.75;2.90;;;;;;;;;;5011886;28;20036;-81
2022/06/09 13:34:02;;;;;;;5.72;2.22;;;;;;;;;;4995784;28;20060;-81
2022/06/09 13:36:29;;;;;;;5.03;2.72;;;;;;;;;;4986593;28;20041;-81
2022/06/09 13:38:55;;;;;;;5.00;3.00;;;;;;;;;;5003893;28;20551;-81
2022/06/09 13:41:36;;;;;;;5.93;2.92;;;;;;;;;;5012912;28;20034;-80
2022/06/09 13:44:14;;;;;;;5.93;2.70;;;;;;;;;;5003249;28;20034;-80
2022/06/09 13:47:02;;;;;;;6.18;2.78;;;;;;;;;;5003128;28;20065;-79
2022/06/09 13:49:30;;;;;;;5.03;3.03;;;;;;;;;;5011600;28;20517;-80
2022/06/09 13:52:06;;;;;;;4.80;2.85;;;;;;;;;;5012288;28;20033;-79
2022/06/09 13:54:46;;;;;;;5.85;2.67;;;;;;;;;;5002194;28;20099;-80
2022/06/09 13:57:17;;;;;;;5.22;2.72;;;;;;;;;;5016659;28;20034;-80
2022/06/09 13:59:43;;;;;;;4.78;2.97;;;;;;;;;;5013410;28;20553;-80
2022/06/09 14:02:14;;;;;;;5.72;2.83;;;;;;;;;;5005413;28;20116;-80
2022/06/09 14:04:40;;;;;;;6.43;3.00;;;;;;;;;;5008091;28;20033;-80
2022/06/09 14:07:06;;;;;;;5.20;2.90;;;;;;;;;;5017387;28;20034;-80
2022/06/09 14:09:31;;;;;;;3.95;2.55;;;;;;;;;;4998187;28;20037;-79
2022/06/09 14:11:56;;;;;;;5.28;2.92;;;;;;;;;;5012111;28;20492;-80
2022/06/09 14:14:22;;;;;;;6.53;3.25;;;;;;;;;;4999667;28;20060;-79
2022/06/09 14:16:47;;;;;;;6.93;3.38;;;;;;;;;;5007027;28;20037;-80
2022/06/09 14:19:15;;;;;;;5.63;2.90;;;;;;;;;;4980261;28;20038;-80
2022/06/09 14:21:41;;;;;;;5.85;3.22;;;;;;;;;;5005099;28;20121;-80
2022/06/09 14:24:14;;;;;;;5.88;3.22;;;;;;;;;;5001149;28;20137;-80
2022/06/09 14:26:40;;;;;;;6.63;3.13;;;;;;;;;;5005807;28;20033;-80
2022/06/09 14:29:07;;;;;;;5.38;3.03;;;;;;;;;;4998974;28;20034;-80
2022/06/09 14:31:33;;;;;;;5.13;2.90;;;;;;;;;;5015231;28;20044;-80
2022/06/09 14:34:00;;;;;;;6.13;3.50;;;;;;;;;;5018264;28;20054;-80
2022/06/09 14:36:26;;;;;;;7.07;3.40;;;;;;;;;;5005592;28;20069;-80
2022/06/09 14:38:52;;;;;;;6.93;2.95;;;;;;;;;;5013749;28;20037;-79
2022/06/09 14:41:18;;;;;;;5.20;3.15;;;;;;;;;;4999322;28;20358;-80
2022/06/09 14:43:43;;;;;;;6.15;2.78;;;;;;;;;;5000430;28;20091;-79
2022/06/09 14:46:22;;;;;;;5.28;2.90;;;;;;;;;;5009332;28;20090;-80
2022/06/09 14:48:48;;;;;;;5.28;3.08;;;;;;;;;;5001141;28;20049;-77
2022/06/09 14:51:13;;;;;;;6.03;3.20;;;;;;;;;;4986507;28;20042;-79
2022/06/09 14:53:40;;;;;;;6.00;2.97;;;;;;;;;;4990387;28;20902;-80
2022/06/09 14:56:06;;;;;;;5.33;2.80;;;;;;;;;;4993088;28;20838;-79
2022/06/09 14:58:31;;;;;;;5.47;3.53;;;;;;;;;;5001428;28;20343;-79
2022/06/09 15:00:57;;;;;;;4.40;3.10;;;;;;;;;;5001014;28;20085;-80
2022/06/09 15:03:23;;;;;;;8.90;3.55;;;;;;;;;;5004440;28;20157;-80
2022/06/09 15:05:49;;;;;;;5.63;3.55;;;;;;;;;;4993087;28;20035;-81
2022/06/09 15:08:18;;;;;;;5.68;3.30;;;;;;;;;;4987489;28;20153;-81
2022/06/09 15:10:47;;;;;;;4.90;3.25;;;;;;;;;;4985302;28;20553;-81
2022/06/09 15:13:13;;;;;;;5.95;3.33;;;;;;;;;;4985302;28;20042;-80
2022/06/09 15:15:39;;;;;;;7.45;3.33;;;;;;;;;;5005860;28;20060;-80
2022/06/09 15:18:07;;;;;;;6.43;3.47;;;;;;;;;;5000612;28;20034;-81
2022/06/09 15:20:37;;;;;;;6.28;3.50;;;;;;;;;;5005856;28;20497;-80
2022/06/09 15:23:03;;;;;;;4.82;3.20;;;;;;;;;;4988610;28;20131;-81
2022/06/09 15:25:29;;;;;;;6.10;3.67;;;;;;;;;;4982031;28;20030;-81
2022/06/09 15:27:57;;;;;;;4.95;3.10;;;;;;;;;;4988147;28;20608;-80